Time;durP1;ratioP1;P1;durP2;ratioP2;P2;SDS_P1;SDS_P2;PMS_P1;PMS_P2;Temp;Humidity;BMP_temperature;BMP_pressure;BME280_temperature;BME280_humidity;BME280_pressure;Samples;Min_cycle;Max_cycle;Signal;HPM_P1;HPM_P2
2024/02/03 00:02:01;;;;;;;34.47;21.60;;;;;;;1.92;100.00;101478.94;5052704;28;20044;-66
2024/02/03 00:04:26;;;;;;;32.45;19.35;;;;;;;1.31;100.00;101391.31;5053270;28;20040;-63
2024/02/03 00:06:52;;;;;;;35.55;20.38;;;;;;;1.61;100.00;101478.78;5053059;28;20032;-63
2024/02/03 00:09:18;;;;;;;32.20;19.00;;;;;;;1.60;100.00;101487.16;5053112;28;20033;-67
2024/02/03 00:11:47;;;;;;;31.30;19.55;;;;;;;1.33;100.00;101455.06;5029620;28;20124;-69
2024/02/03 00:14:12;;;;;;;36.47;21.25;;;;;;;1.42;100.00;101472.03;5029576;28;20051;-64
2024/02/03 00:16:38;;;;;;;34.60;20.33;;;;;;;1.60;100.00;101474.44;5028189;28;20033;-66
2024/02/03 00:19:04;;;;;;;33.72;20.20;;;;;;;1.75;100.00;101492.72;5030383;28;20547;-65
2024/02/03 00:21:31;;;;;;;36.25;19.08;;;;;;;1.63;100.00;101474.69;5029508;28;20050;-64
2024/02/03 00:23:56;;;;;;;31.33;19.42;;;;;;;1.01;100.00;101410.72;5028113;28;20128;-67
2024/02/03 00:26:22;;;;;;;35.75;19.85;;;;;;;1.17;100.00;101438.38;5030168;28;20125;-65
2024/02/03 00:28:49;;;;;;;28.17;19.50;;;;;;;1.53;100.00;101469.56;5029459;28;20520;-66
2024/02/03 00:31:15;;;;;;;32.75;18.35;;;;;;;1.70;100.00;101487.22;5008336;28;20152;-66
2024/02/03 00:33:41;;;;;;;32.45;19.35;;;;;;;1.67;100.00;101488.59;5024753;28;20174;-66
2024/02/03 00:36:07;;;;;;;36.47;20.73;;;;;;;1.58;100.00;101474.31;5027198;28;20036;-66
2024/02/03 00:38:32;;;;;;;35.95;21.25;;;;;;;1.73;100.00;101491.69;5010897;28;20041;-64
2024/02/03 00:40:58;;;;;;;34.05;20.45;;;;;;;1.72;100.00;101480.63;5030109;28;20040;-65
2024/02/03 00:43:24;;;;;;;38.45;23.27;;;;;;;1.66;100.00;101466.44;5045746;28;20049;-66
2024/02/03 00:45:49;;;;;;;33.55;20.05;;;;;;;1.81;100.00;101475.44;5050435;28;20029;-67
2024/02/03 00:48:15;;;;;;;34.60;18.90;;;;;;;1.77;100.00;101460.69;5051635;28;20159;-67
2024/02/03 00:50:40;;;;;;;31.80;19.35;;;;;;;1.75;100.00;101449.44;5052097;28;20508;-63
2024/02/03 00:53:06;;;;;;;29.23;18.02;;;;;;;1.85;100.00;101468.97;5052369;28;20056;-65
2024/02/03 00:55:31;;;;;;;31.67;18.65;;;;;;;1.51;100.00;101421.06;5052588;28;20465;-68
2024/02/03 00:57:57;;;;;;;29.70;18.55;;;;;;;1.82;100.00;101476.31;5051484;28;20040;-65
2024/02/03 01:00:27;;;;;;;29.00;17.58;;;;;;;1.73;100.00;101450.97;5051915;28;20033;-67
2024/02/03 01:02:52;;;;;;;;;;;;;;;1.82;100.00;101468.69;5052507;28;20055;-63
2024/02/03 01:05:18;;;;;;;30.00;17.13;;;;;;;1.78;100.00;101465.88;5051490;28;19917;-64
2024/02/03 01:07:44;;;;;;;28.48;17.42;;;;;;;1.77;100.00;101471.75;5051347;28;20376;-65
2024/02/03 01:10:10;;;;;;;29.60;17.67;;;;;;;1.78;100.00;101473.53;5048679;28;20025;-68
2024/02/03 01:12:35;;;;;;;30.02;18.85;;;;;;;1.37;100.00;101407.13;5051444;28;20020;-65
2024/02/03 01:15:01;;;;;;;34.10;17.48;;;;;;;1.76;100.00;101463.97;5051603;28;20600;-65
2024/02/03 01:17:26;;;;;;;30.95;17.75;;;;;;;1.28;100.00;101384.31;5050917;28;20044;-66
2024/02/03 01:19:53;;;;;;;26.92;16.58;;;;;;;1.73;100.00;101450.97;5050176;28;20032;-70
2024/02/03 01:22:22;;;;;;;27.63;16.98;;;;;;;1.64;100.00;101433.22;5048741;28;20095;-66
2024/02/03 01:24:48;;;;;;;28.65;16.80;;;;;;;1.72;100.00;101454.25;5051119;28;20060;-65
2024/02/03 01:27:14;;;;;;;25.90;16.45;;;;;;;1.58;100.00;101425.97;5049427;28;20467;-64
2024/02/03 01:29:39;;;;;;;27.85;15.77;;;;;;;1.26;100.00;101370.56;5049879;28;20036;-66
2024/02/03 01:32:06;;;;;;;27.27;16.48;;;;;;;1.68;100.00;101445.44;5046623;28;20029;-66
2024/02/03 01:34:32;;;;;;;33.13;18.15;;;;;;;1.72;100.00;101441.53;5051579;28;20033;-65
2024/02/03 01:36:57;;;;;;;42.13;27.77;;;;;;;1.72;100.00;101447.53;5046387;28;20025;-65
2024/02/03 01:39:23;;;;;;;33.10;20.48;;;;;;;1.69;100.00;101451.44;5051114;28;20032;-66
2024/02/03 01:41:48;;;;;;;29.27;17.63;;;;;;;1.27;100.00;101385.06;5043911;28;20036;-63
2024/02/03 01:44:14;;;;;;;28.42;16.90;;;;;;;1.70;100.00;101449.03;5049879;28;20063;-65
2024/02/03 01:46:40;;;;;;;26.95;16.73;;;;;;;1.71;100.00;101445.75;5051207;28;20037;-64
2024/02/03 01:49:06;;;;;;;29.23;17.35;;;;;;;1.69;100.00;101441.28;5050186;28;20064;-66
2024/02/03 01:51:33;;;;;;;25.60;15.82;;;;;;;1.52;100.00;101434.69;5050970;28;20041;-66
2024/02/03 01:54:00;;;;;;;26.52;16.52;;;;;;;1.33;100.00;101432.16;5050693;28;20025;-68
2024/02/03 01:56:26;;;;;;;31.38;17.83;;;;;;;1.46;100.00;101442.69;5047016;28;20060;-69
2024/02/03 01:58:51;;;;;;;30.50;17.33;;;;;;;1.52;100.00;101447.41;5049537;28;20508;-67
2024/02/03 02:01:19;;;;;;;29.52;17.13;;;;;;;1.49;100.00;101434.41;5051558;28;20078;-66
2024/02/03 02:03:44;;;;;;;32.55;17.70;;;;;;;1.03;100.00;101340.53;5049917;28;20045;-66
2024/02/03 02:06:10;;;;;;;28.50;15.73;;;;;;;1.53;100.00;101433.94;5046963;28;20033;-70
2024/02/03 02:08:37;;;;;;;22.70;15.65;;;;;;;1.49;100.00;101434.41;5050766;28;20037;-67
2024/02/03 02:11:04;;;;;;;24.02;15.82;;;;;;;1.36;100.00;101420.59;5050747;28;20498;-65
2024/02/03 02:13:30;;;;;;;32.85;17.45;;;;;;;0.87;100.00;101350.97;5050870;28;20033;-66
2024/02/03 02:15:56;;;;;;;26.52;16.40;;;;;;;1.20;100.00;101415.78;5050542;28;20021;-65
2024/02/03 02:18:24;;;;;;;28.08;17.05;;;;;;;1.29;100.00;101431.88;5051042;28;20419;-67
2024/02/03 02:20:50;;;;;;;26.52;16.02;;;;;;;1.26;100.00;101439.22;5049922;28;20499;-70
2024/02/03 02:23:15;;;;;;;26.17;16.10;;;;;;;1.28;100.00;101427.56;5049735;28;20124;-69
2024/02/03 02:25:41;;;;;;;23.13;15.55;;;;;;;1.26;100.00;101420.56;5050801;28;20032;-67
2024/02/03 02:28:06;;;;;;;27.33;16.60;;;;;;;0.96;100.00;101367.06;5050531;28;20128;-67
2024/02/03 02:30:32;;;;;;;28.08;15.90;;;;;;;1.31;100.00;101429.47;5050466;28;20076;-65
2024/02/03 02:32:59;;;;;;;26.65;14.93;;;;;;;1.33;100.00;101421.97;5050793;28;20420;-68
2024/02/03 02:35:24;;;;;;;27.23;16.45;;;;;;;1.40;100.00;101427.75;5050625;28;20025;-66
2024/02/03 02:37:51;;;;;;;28.58;16.65;;;;;;;1.35;100.00;101434.06;5049867;28;20029;-66
2024/02/03 02:40:17;;;;;;;25.48;15.57;;;;;;;1.05;100.00;101410.22;5050019;28;20480;-64
2024/02/03 02:42:42;;;;;;;27.05;16.83;;;;;;;1.03;100.00;101438.81;5050166;28;20091;-65
2024/02/03 02:45:08;;;;;;;26.63;16.35;;;;;;;1.11;100.00;101423.50;5049711;28;20067;-66
2024/02/03 02:47:34;;;;;;;27.85;16.17;;;;;;;1.07;100.00;101436.69;5050387;28;20072;-65
2024/02/03 02:50:00;;;;;;;28.38;17.27;;;;;;;1.04;100.00;101431.31;5041714;28;20056;-64
2024/02/03 02:52:25;;;;;;;32.55;17.17;;;;;;;1.13;100.00;101434.69;5020968;28;20132;-66
2024/02/03 02:54:51;;;;;;;29.38;15.82;;;;;;;1.16;100.00;101425.53;5027994;28;20045;-67
2024/02/03 02:57:17;;;;;;;28.58;16.33;;;;;;;1.18;100.00;101426.59;5027504;28;20041;-67
2024/02/03 02:59:42;;;;;;;26.63;16.42;;;;;;;1.21;100.00;101431.94;5027119;28;20041;-65
2024/02/03 03:02:08;;;;;;;28.02;16.35;;;;;;;1.23;100.00;101427.88;5026946;28;20079;-68
2024/02/03 03:04:34;;;;;;;31.42;16.52;;;;;;;1.24;100.00;101409.31;5026978;28;20041;-66
2024/02/03 03:06:59;;;;;;;29.55;16.65;;;;;;;1.35;100.00;101417.94;5026982;28;20038;-66
2024/02/03 03:09:28;;;;;;;30.83;17.10;;;;;;;1.35;100.00;101428.09;5025623;28;20084;-67
2024/02/03 03:11:53;;;;;;;28.33;16.77;;;;;;;1.24;100.00;101404.25;5010778;28;20103;-65
2024/02/03 03:14:19;;;;;;;29.90;16.40;;;;;;;1.01;100.00;101361.47;5027370;28;20493;-63
2024/02/03 03:16:44;;;;;;;28.52;15.13;;;;;;;1.37;100.00;101416.41;5027770;28;20045;-65
2024/02/03 03:19:10;;;;;;;29.92;15.85;;;;;;;1.34;100.00;101414.47;5027222;28;20057;-69
2024/02/03 03:21:35;;;;;;;27.05;16.65;;;;;;;1.01;100.00;101374.19;5026716;28;20029;-66
2024/02/03 03:24:01;;;;;;;27.70;16.20;;;;;;;1.22;100.00;101414.28;5042757;28;20094;-65
2024/02/03 03:26:26;;;;;;;30.58;16.83;;;;;;;1.17;100.00;101392.59;5048535;28;20055;-68
2024/02/03 03:28:52;;;;;;;30.90;16.25;;;;;;;1.36;100.00;101424.78;5049070;28;20123;-66
2024/02/03 03:31:17;;;;;;;26.30;16.30;;;;;;;0.94;100.00;101338.03;5049043;28;20477;-65
2024/02/03 03:33:43;;;;;;;31.65;17.00;;;;;;;1.44;100.00;101409.44;5049093;28;20055;-66
2024/02/03 03:36:10;;;;;;;28.10;16.77;;;;;;;1.43;100.00;101411.84;5048932;28;20024;-71
2024/02/03 03:38:42;;;;;;;25.08;15.88;;;;;;;1.41;100.00;101414.28;5049196;28;20966;-70
2024/02/03 03:41:09;;;;;;;26.25;16.63;;;;;;;1.40;100.00;101414.13;5049316;28;20117;-68
2024/02/03 03:43:35;;;;;;;25.95;16.17;;;;;;;1.39;100.00;101414.91;5049503;28;20496;-66
2024/02/03 03:46:01;;;;;;;24.83;15.32;;;;;;;1.27;100.00;101401.97;5049525;28;20469;-71
2024/02/03 03:48:26;;;;;;;25.98;14.82;;;;;;;1.37;100.00;101427.50;5049213;28;20040;-65
2024/02/03 03:50:52;;;;;;;28.92;15.77;;;;;;;1.31;100.00;101421.84;5049529;28;20033;-64
2024/02/03 03:53:17;;;;;;;26.05;16.80;;;;;;;1.32;100.00;101410.91;5049409;28;20025;-66
2024/02/03 03:55:43;;;;;;;29.05;15.43;;;;;;;1.24;100.00;101394.94;5049702;28;20066;-69
2024/02/03 03:58:08;;;;;;;26.58;15.00;;;;;;;1.10;100.00;101403.00;5049140;28;20064;-65
2024/02/03 04:00:34;;;;;;;29.30;16.73;;;;;;;0.99;100.00;101401.16;5049011;28;20412;-69
2024/02/03 04:03:00;;;;;;;28.95;16.25;;;;;;;0.91;100.00;101390.25;5048972;28;20081;-65
2024/02/03 04:05:25;;;;;;;27.98;15.45;;;;;;;0.94;100.00;101400.72;5049275;28;20108;-68
2024/02/03 04:07:51;;;;;;;26.17;15.02;;;;;;;0.90;100.00;101398.69;5049007;28;20136;-64
2024/02/03 04:10:17;;;;;;;29.25;15.13;;;;;;;0.64;100.00;101392.97;5048951;28;20399;-65
2024/02/03 04:12:44;;;;;;;26.05;16.15;;;;;;;0.45;100.00;101399.69;5049688;28;20116;-66
2024/02/03 04:15:10;;;;;;;25.20;15.23;;;;;;;0.40;100.00;101400.88;5049174;28;20043;-67
2024/02/03 04:17:38;;;;;;;27.90;16.20;;;;;;;0.56;100.00;101399.03;5048850;28;20116;-66
2024/02/03 04:20:04;;;;;;;26.20;15.85;;;;;;;0.50;100.00;101372.16;5049119;28;20098;-70
2024/02/03 04:22:29;;;;;;;28.80;16.43;;;;;;;0.59;100.00;101389.13;5044688;28;20123;-71
2024/02/03 04:24:55;;;;;;;28.40;16.05;;;;;;;0.37;100.00;101382.84;5048800;28;20121;-66
2024/02/03 04:27:21;;;;;;;28.80;15.97;;;;;;;0.22;100.00;101359.44;5048827;28;20082;-65
2024/02/03 04:29:46;;;;;;;27.63;16.23;;;;;;;0.19;100.00;101367.69;5047716;28;20123;-65
2024/02/03 04:32:12;;;;;;;26.20;15.60;;;;;;;-0.18;100.00;101296.59;5049099;28;20033;-65
2024/02/03 04:34:40;;;;;;;27.87;16.23;;;;;;;0.07;100.00;101326.78;5048994;28;20056;-66
2024/02/03 04:37:05;;;;;;;26.07;15.80;;;;;;;0.48;100.00;101380.50;5048736;28;20476;-66
2024/02/03 04:39:32;;;;;;;27.43;15.40;;;;;;;0.48;100.00;101375.44;5048906;28;20115;-65
2024/02/03 04:41:57;;;;;;;22.90;15.03;;;;;;;0.46;100.00;101378.59;5013823;28;20037;-65
2024/02/03 04:44:23;;;;;;;28.93;15.53;;;;;;;0.36;100.00;101369.22;5050681;28;20036;-66
2024/02/03 04:46:48;;;;;;;26.93;15.23;;;;;;;0.23;100.00;101361.25;5052837;28;20060;-66
2024/02/03 04:49:14;;;;;;;28.73;15.90;;;;;;;0.41;100.00;101377.28;5052744;28;20025;-65
2024/02/03 04:51:39;;;;;;;22.17;13.77;;;;;;;0.44;100.00;101381.00;5040585;28;20041;-66
2024/02/03 04:54:05;;;;;;;22.30;14.57;;;;;;;0.08;100.00;101320.09;5049502;28;20511;-66
2024/02/03 04:56:31;;;;;;;24.67;14.00;;;;;;;0.27;100.00;101350.59;5052764;28;20068;-65
2024/02/03 04:58:56;;;;;;;25.33;14.73;;;;;;;0.29;100.00;101357.63;5052884;28;20514;-65
2024/02/03 05:01:22;;;;;;;31.00;16.83;;;;;;;0.25;100.00;101362.25;5050010;28;20036;-66
2024/02/03 05:03:48;;;;;;;24.83;15.07;;;;;;;0.25;100.00;101369.88;5048072;28;20402;-65
2024/02/03 05:06:13;;;;;;;25.00;15.60;;;;;;;0.15;100.00;101353.81;5051803;28;20496;-66
2024/02/03 05:08:39;;;;;;;26.07;15.33;;;;;;;0.15;100.00;101375.78;5049976;28;20477;-67
2024/02/03 05:11:04;;;;;;;28.10;16.03;;;;;;;0.04;100.00;101362.06;5050387;28;20025;-65
2024/02/03 05:13:30;;;;;;;28.03;15.60;;;;;;;-0.08;100.00;101355.84;5040958;28;20029;-65
2024/02/03 05:15:55;;;;;;;28.13;16.13;;;;;;;-0.10;100.00;101372.56;5051657;28;20036;-65
2024/02/03 05:18:21;;;;;;;25.80;16.13;;;;;;;-0.23;100.00;101343.50;5052268;28;20036;-66
2024/02/03 05:20:47;;;;;;;25.70;16.70;;;;;;;-0.13;100.00;101369.75;5048428;28;20029;-64
2024/02/03 05:23:13;;;;;;;27.23;16.67;;;;;;;-0.63;100.00;101281.38;5051967;28;20029;-64
2024/02/03 05:25:38;;;;;;;30.83;17.90;;;;;;;-0.12;100.00;101366.47;5051175;28;20491;-66
2024/02/03 05:28:04;;;;;;;32.13;20.03;;;;;;;-0.12;100.00;101374.09;5015696;28;20037;-66
2024/02/03 05:30:31;;;;;;;39.53;20.13;;;;;;;-0.52;100.00;101306.13;5011879;28;20041;-64
2024/02/03 05:32:56;;;;;;;39.30;19.10;;;;;;;-0.17;100.00;101368.56;5051755;28;20021;-66
2024/02/03 05:35:22;;;;;;;37.60;20.17;;;;;;;-0.16;100.00;101365.28;5042439;28;20033;-65
2024/02/03 05:37:47;;;;;;;36.83;20.13;;;;;;;-0.08;100.00;101366.88;5051611;28;20087;-65
2024/02/03 05:40:13;;;;;;;47.87;27.47;;;;;;;-0.17;100.00;101354.22;5050811;28;20465;-66
2024/02/03 05:42:39;;;;;;;53.30;27.87;;;;;;;-0.15;100.00;101363.63;5049916;28;20032;-65
2024/02/03 05:45:05;;;;;;;43.17;25.83;;;;;;;-0.15;100.00;101372.13;5051132;28;20032;-65
2024/02/03 05:47:30;;;;;;;45.53;26.03;;;;;;;-0.26;100.00;101365.13;5051349;28;20032;-66
2024/02/03 05:49:56;;;;;;;43.57;26.87;;;;;;;-0.39;100.00;101340.25;5050882;28;20070;-65
2024/02/03 05:52:21;;;;;;;49.87;30.00;;;;;;;-0.11;100.00;101369.13;5049891;28;20025;-64
2024/02/03 05:54:51;;;;;;;45.23;27.37;;;;;;;-0.11;100.00;101378.38;5033008;28;20496;-64
2024/02/03 05:57:17;;;;;;;46.20;26.43;;;;;;;-0.50;100.00;101312.25;5046776;28;20412;-63
2024/02/03 05:59:46;;;;;;;41.20;25.33;;;;;;;-0.07;100.00;101376.28;5052163;28;20036;-67
2024/02/03 06:02:12;;;;;;;42.17;26.00;;;;;;;-0.06;100.00;101369.59;5049068;28;20118;-64
2024/02/03 06:04:41;;;;;;;47.17;28.13;;;;;;;-0.06;100.00;101367.03;5050325;28;20162;-66
2024/02/03 06:07:07;;;;;;;50.03;31.13;;;;;;;-0.03;100.00;101373.28;5050855;28;20028;-65
2024/02/03 06:09:33;;;;;;;44.47;27.43;;;;;;;0.02;100.00;101376.25;5050131;28;20056;-65
2024/02/03 06:11:58;;;;;;;50.80;30.33;;;;;;;0.04;100.00;101367.16;5050528;28;20523;-65
2024/02/03 06:14:25;;;;;;;48.70;29.57;;;;;;;0.08;100.00;101376.81;5051064;28;20029;-66
2024/02/03 06:16:50;;;;;;;50.77;30.30;;;;;;;0.12;100.00;101378.88;5051231;28;20036;-65
2024/02/03 06:19:16;;;;;;;49.83;30.50;;;;;;;-0.21;100.00;101301.41;5050914;28;20037;-67
2024/02/03 06:21:42;;;;;;;49.57;29.43;;;;;;;0.27;100.00;101370.94;5050774;28;20029;-66
2024/02/03 06:24:08;;;;;;;48.33;29.67;;;;;;;0.31;100.00;101372.97;5050826;28;20056;-64
2024/02/03 06:26:33;;;;;;;44.07;28.13;;;;;;;0.34;100.00;101380.91;5050916;28;20036;-64
2024/02/03 06:28:59;;;;;;;48.33;29.50;;;;;;;0.19;100.00;101356.59;5050757;28;20020;-65
2024/02/03 06:31:24;;;;;;;54.70;33.30;;;;;;;0.44;100.00;101386.06;5050979;28;20407;-65
2024/02/03 06:33:50;;;;;;;52.00;32.90;;;;;;;0.54;100.00;101385.28;5051307;28;20029;-66
2024/02/03 06:36:15;;;;;;;48.03;27.83;;;;;;;0.60;100.00;101384.97;5050690;28;20029;-66
2024/02/03 06:38:41;;;;;;;40.93;26.03;;;;;;;0.67;100.00;101374.56;5049573;28;20036;-65
2024/02/03 06:41:10;;;;;;;43.43;25.37;;;;;;;0.59;100.00;101342.50;5048731;28;20496;-64
2024/02/03 06:43:40;;;;;;;38.92;24.08;;;;;;;0.78;100.00;101367.94;5051301;28;20606;-64
2024/02/03 06:46:06;;;;;;;39.00;23.07;;;;;;;0.86;100.00;101361.91;5008372;28;20045;-64
2024/02/03 06:48:31;;;;;;;38.57;23.27;;;;;;;0.96;100.00;101361.97;5008214;28;20072;-67
2024/02/03 06:50:57;;;;;;;39.25;23.65;;;;;;;1.09;100.00;101360.53;5008019;28;20045;-65
2024/02/03 06:53:22;;;;;;;34.27;21.57;;;;;;;0.78;100.00;101284.94;5007873;28;20401;-64
2024/02/03 06:55:48;;;;;;;34.22;23.25;;;;;;;1.42;100.00;101372.81;5008834;28;20045;-64
2024/02/03 06:58:13;;;;;;;32.28;20.73;;;;;;;1.52;100.00;101360.88;5008008;28;20046;-64
2024/02/03 07:00:39;;;;;;;37.65;22.55;;;;;;;1.76;100.00;101370.66;5008152;28;20472;-66
2024/02/03 07:03:04;;;;;;;35.03;21.55;;;;;;;2.03;100.00;101370.34;5007684;28;20049;-64
2024/02/03 07:05:30;;;;;;;36.47;22.30;;;;;;;2.13;100.00;101379.69;5008171;28;20457;-65
2024/02/03 07:07:55;;;;;;;34.83;22.30;;;;;;;2.31;100.00;101368.50;5006739;28;20421;-65
2024/02/03 07:10:21;;;;;;;32.67;20.02;;;;;;;2.52;100.00;101373.63;5008191;28;20068;-64
2024/02/03 07:12:46;;;;;;;33.50;20.85;;;;;;;2.71;100.00;101374.38;5007749;28;20433;-65
2024/02/03 07:15:12;;;;;;;30.67;20.50;;;;;;;2.45;100.00;101305.06;5007520;28;20029;-64
2024/02/03 07:17:37;;;;;;;30.42;18.83;;;;;;;3.06;100.00;101384.03;5039487;28;20516;-64
2024/02/03 07:20:03;;;;;;;29.00;18.05;;;;;;;3.08;100.00;101386.75;5049601;28;20039;-65
2024/02/03 07:22:30;;;;;;;32.83;19.77;;;;;;;3.22;100.00;101392.97;5049575;28;20098;-64
2024/02/03 07:24:56;;;;;;;31.50;19.95;;;;;;;3.31;100.00;101388.59;5030576;28;20036;-65
2024/02/03 07:27:21;;;;;;;31.33;19.55;;;;;;;3.20;100.00;101338.34;5050049;28;20029;-66
2024/02/03 07:29:47;;;;;;;29.52;18.83;;;;;;;3.56;100.00;101393.13;5049317;28;20060;-64
2024/02/03 07:32:12;;;;;;;28.88;18.73;;;;;;;3.28;100.00;101337.31;5049251;28;20037;-64
2024/02/03 07:34:43;;;;;;;24.90;13.70;;;;;;;2.82;100.00;101308.09;5049585;28;20024;-63
2024/02/03 07:37:10;;;;;;;23.35;15.75;;;;;;;3.38;100.00;101390.00;5049447;28;20396;-65
2024/02/03 07:39:36;;;;;;;18.40;12.10;;;;;;;2.87;100.00;101309.38;5050130;28;20514;-68
2024/02/03 07:42:02;;;;;;;18.27;11.77;;;;;;;3.34;100.00;101380.28;5049441;28;20052;-63
2024/02/03 07:44:28;;;;;;;50.65;27.15;;;;;;;3.39;100.00;101389.25;5030297;28;20041;-65
2024/02/03 07:46:53;;;;;;;27.38;14.45;;;;;;;3.38;100.00;101388.31;5049674;28;20032;-64
2024/02/03 07:49:19;;;;;;;23.50;13.93;;;;;;;3.62;100.00;101387.63;5049753;28;20037;-65
2024/02/03 07:51:44;;;;;;;19.85;14.10;;;;;;;3.77;100.00;101381.16;5048729;28;20111;-69
2024/02/03 07:54:10;;;;;;;24.20;13.35;;;;;;;3.76;100.00;101363.19;5049072;28;20027;-65
2024/02/03 07:56:35;;;;;;;22.92;13.20;;;;;;;4.05;100.00;101391.91;5049423;28;20103;-65
2024/02/03 07:59:01;;;;;;;24.85;13.05;;;;;;;4.15;100.00;101384.94;5049848;28;20408;-65
2024/02/03 08:01:26;;;;;;;20.85;11.70;;;;;;;4.34;100.00;101393.25;5049584;28;20064;-65
2024/02/03 08:03:52;;;;;;;22.85;13.18;;;;;;;4.49;100.00;101388.44;5049018;28;20080;-65
2024/02/03 08:06:17;;;;;;;16.38;9.57;;;;;;;4.47;100.00;101399.31;5050271;28;20400;-65
2024/02/03 08:08:43;;;;;;;17.77;10.15;;;;;;;4.34;100.00;101390.69;5049042;28;20060;-65
2024/02/03 08:11:09;;;;;;;14.57;8.88;;;;;;;4.14;100.00;101368.72;5047506;28;20037;-66
2024/02/03 08:13:35;;;;;;;16.73;9.73;;;;;;;4.29;100.00;101375.81;5049035;28;20041;-66
2024/02/03 08:16:00;;;;;;;17.83;10.18;;;;;;;4.07;100.00;101294.91;5049978;28;20035;-66
2024/02/03 08:18:26;;;;;;;16.70;10.18;;;;;;;4.66;100.00;101363.22;5048801;28;20041;-65
2024/02/03 08:20:51;;;;;;;21.25;11.57;;;;;;;4.77;100.00;101375.19;5032803;28;20116;-65
2024/02/03 08:23:17;;;;;;;18.27;10.13;;;;;;;4.94;100.00;101367.88;5053235;28;20065;-64
2024/02/03 08:25:42;;;;;;;17.58;9.90;;;;;;;5.02;100.00;101359.97;5053293;28;20032;-65
2024/02/03 08:28:09;;;;;;;12.85;8.75;;;;;;;4.94;100.00;101352.50;5053971;28;20389;-68
2024/02/03 08:30:37;;;;;;;17.15;8.20;;;;;;;4.75;100.00;101343.47;5052684;28;20033;-64
2024/02/03 08:33:03;;;;;;;14.90;9.63;;;;;;;4.51;100.00;101291.38;5052881;28;20037;-65
2024/02/03 08:35:28;;;;;;;11.63;6.90;;;;;;;4.98;100.00;101360.50;5052816;28;20110;-67
2024/02/03 08:37:53;;;;;;;9.40;5.63;;;;;;;4.95;100.00;101344.94;5052739;28;20033;-65
2024/02/03 08:40:19;;;;;;;11.85;6.85;;;;;;;5.13;100.00;101357.31;5052407;28;20055;-65
2024/02/03 08:42:45;;;;;;;11.70;7.03;;;;;;;5.00;100.00;101333.38;5052882;28;20739;-65
2024/02/03 08:45:11;;;;;;;10.90;6.97;;;;;;;5.26;100.00;101360.00;5053411;28;20496;-62
2024/02/03 08:47:37;;;;;;;11.05;6.72;;;;;;;5.37;100.00;101353.09;5052676;28;20103;-64
2024/02/03 08:50:03;;;;;;;8.85;5.57;;;;;;;5.51;100.00;101374.56;5052721;28;20032;-65
2024/02/03 08:52:28;;;;;;;9.40;5.38;;;;;;;5.62;100.00;101365.97;5052275;28;20541;-64
2024/02/03 08:54:53;;;;;;;9.63;4.43;;;;;;;5.55;100.00;101362.88;5052601;28;20112;-66
2024/02/03 08:57:19;;;;;;;7.65;4.50;;;;;;;5.77;100.00;101362.72;5052595;28;20110;-64
2024/02/03 08:59:45;;;;;;;7.82;4.15;;;;;;;5.31;100.00;101274.16;5041745;28;20045;-64
2024/02/03 09:02:11;;;;;;;6.57;3.78;;;;;;;5.67;99.98;101356.06;5052547;28;20049;-63
2024/02/03 09:04:36;;;;;;;14.40;3.83;;;;;;;5.53;100.00;101334.56;5052223;28;20035;-64
2024/02/03 09:07:02;;;;;;;12.23;5.93;;;;;;;5.58;100.00;101323.00;5052344;28;20070;-65
2024/02/03 09:09:27;;;;;;;11.25;4.93;;;;;;;6.03;100.00;101348.31;5052090;28;20461;-67
2024/02/03 09:11:53;;;;;;;7.20;4.22;;;;;;;5.87;99.10;101336.97;5050693;28;20032;-65
2024/02/03 09:14:18;;;;;;;9.95;5.35;;;;;;;6.19;100.00;101345.13;5052838;28;20029;-64
2024/02/03 09:16:45;;;;;;;5.53;3.42;;;;;;;6.02;99.65;101342.31;5051291;28;20036;-71
2024/02/03 09:19:10;;;;;;;9.05;5.90;;;;;;;5.91;100.00;101343.19;5052428;28;20037;-64
2024/02/03 09:21:36;;;;;;;7.40;4.47;;;;;;;5.87;100.00;101333.50;5051836;28;20040;-64
2024/02/03 09:24:01;;;;;;;9.68;6.57;;;;;;;6.11;100.00;101342.06;5051941;28;20041;-70
2024/02/03 09:26:27;;;;;;;9.80;5.03;;;;;;;6.29;99.14;101338.19;5052018;28;20040;-64
2024/02/03 09:28:52;;;;;;;10.55;5.03;;;;;;;6.31;98.80;101328.91;5052190;28;20090;-66
2024/02/03 09:31:21;;;;;;;11.57;5.90;;;;;;;6.37;98.71;101322.41;5051215;28;20100;-65
2024/02/03 09:33:47;;;;;;;11.50;5.72;;;;;;;6.42;97.78;101306.56;5051818;28;20569;-65
2024/02/03 09:36:14;;;;;;;8.10;4.93;;;;;;;6.02;98.64;101234.66;5051709;28;20037;-66
2024/02/03 09:38:41;;;;;;;8.48;4.13;;;;;;;6.42;97.77;101314.25;5051834;28;20029;-69
2024/02/03 09:41:07;;;;;;;8.75;5.20;;;;;;;6.59;97.43;101325.66;5051498;28;20037;-67
2024/02/03 09:43:33;;;;;;;7.82;4.25;;;;;;;6.69;97.26;101308.28;5051636;28;20043;-64
2024/02/03 09:45:59;;;;;;;11.15;5.60;;;;;;;6.68;97.47;101270.59;5052098;28;20024;-64
2024/02/03 09:48:24;;;;;;;8.68;5.32;;;;;;;6.95;97.54;101307.44;5041500;28;20029;-65
2024/02/03 09:50:50;;;;;;;7.82;4.60;;;;;;;6.93;94.90;101307.34;5048201;28;20021;-64
2024/02/03 09:53:16;;;;;;;8.48;4.30;;;;;;;6.97;95.61;101299.03;5051149;28;20405;-66
2024/02/03 09:55:41;;;;;;;10.35;5.43;;;;;;;6.95;94.17;101274.06;5051774;28;20471;-63
2024/02/03 09:58:07;;;;;;;10.32;5.22;;;;;;;7.06;94.45;101267.94;5050673;28;20404;-66
2024/02/03 10:00:35;;;;;;;11.30;6.00;;;;;;;6.98;94.80;101279.41;5051145;28;20037;-64
2024/02/03 10:03:03;;;;;;;9.20;4.70;;;;;;;7.27;94.03;101268.41;5051201;28;20124;-64
2024/02/03 10:05:30;;;;;;;9.25;4.32;;;;;;;7.21;92.76;101275.72;5050970;28;20075;-66
2024/02/03 10:08:01;;;;;;;10.75;4.90;;;;;;;7.00;92.76;101248.69;5051400;28;20039;-65
2024/02/03 10:10:26;;;;;;;10.82;5.40;;;;;;;6.92;91.50;101200.31;5051214;28;20106;-64
2024/02/03 10:13:12;;;;;;;9.77;5.30;;;;;;;6.98;90.72;101181.84;5049014;28;20033;-63
2024/02/03 10:15:39;;;;;;;11.52;4.68;;;;;;;7.48;91.88;101249.09;5047590;28;20029;-64
2024/02/03 10:18:06;;;;;;;9.07;4.40;;;;;;;7.37;89.93;101220.19;5050630;28;20059;-70
2024/02/03 10:20:32;;;;;;;7.95;4.70;;;;;;;7.54;89.17;101218.63;5025980;28;20107;-63
2024/02/03 10:22:57;;;;;;;10.15;4.97;;;;;;;7.68;89.85;101234.94;5050283;28;20029;-66
2024/02/03 10:25:25;;;;;;;9.50;4.05;;;;;;;7.40;88.42;101236.69;5050486;28;20029;-65
2024/02/03 10:28:00;;;;;;;8.38;4.78;;;;;;;7.07;88.49;101143.03;5051292;28;20029;-64
2024/02/03 10:30:29;;;;;;;9.57;4.60;;;;;;;7.38;89.53;101197.16;5048274;28;20047;-63
2024/02/03 10:32:57;;;;;;;13.00;5.90;;;;;;;7.23;89.94;101120.06;5050000;28;20108;-66
2024/02/03 10:35:26;;;;;;;12.30;5.22;;;;;;;7.81;87.48;101193.72;5048473;28;20080;-66
2024/02/03 10:37:51;;;;;;;9.23;4.63;;;;;;;7.98;86.88;101186.16;5049918;28;20029;-65
2024/02/03 10:40:17;;;;;;;8.80;4.18;;;;;;;7.75;87.28;101178.84;5050174;28;20028;-67
2024/02/03 10:42:45;;;;;;;8.63;5.13;;;;;;;7.82;87.76;101192.94;5047313;28;20112;-65
2024/02/03 10:45:11;;;;;;;9.27;5.63;;;;;;;7.90;87.52;101185.66;5047001;28;20041;-65
2024/02/03 10:47:42;;;;;;;10.98;5.30;;;;;;;7.80;86.85;101186.84;5048573;28;20037;-68
2024/02/03 10:50:10;;;;;;;13.20;5.60;;;;;;;7.85;86.35;101162.28;5047987;28;20543;-66
2024/02/03 10:52:37;;;;;;;11.20;5.70;;;;;;;7.55;86.84;101133.06;5049226;28;20445;-70
2024/02/03 10:55:06;;;;;;;8.63;3.92;;;;;;;7.66;86.70;101177.41;5050283;28;20108;-70
2024/02/03 10:57:32;;;;;;;12.98;5.13;;;;;;;7.22;87.42;101043.78;5047125;28;20029;-62
2024/02/03 11:00:06;;;;;;;12.23;6.03;;;;;;;7.72;87.39;101108.38;5049522;28;20090;-65
2024/02/03 11:02:32;;;;;;;12.25;5.90;;;;;;;8.17;87.03;101175.25;5046647;28;20102;-68
2024/02/03 11:04:57;;;;;;;11.43;5.97;;;;;;;8.43;86.51;101148.44;5049598;28;20028;-62
2024/02/03 11:07:25;;;;;;;10.15;5.55;;;;;;;8.47;86.65;101152.97;5049204;28;20554;-66
2024/02/03 11:09:56;;;;;;;9.95;4.45;;;;;;;8.53;84.70;101147.31;5050218;28;20025;-64